This is the latest recevied weather packets stored in our database for station/object G8LMY. If no packets are shown the sender has not sent any weather packets the latest 10 day(s).
| Time | Temp. | Humidity | Pressure | Rain* | Wind** | Luminosity | Snow |
|---|---|---|---|---|---|---|---|
| 1777592334 | 11.11° C | 65% | 1019.8 hPa | 0 mm | - | - | - |
| 1777587834 | 12.22° C | 62% | 1019.6 hPa | 0 mm | - | - | - |
| 1777579735 | 14.44° C | 50% | 1019.6 hPa | 0 mm | - | - | - |
| 1777576135 | 16.11° C | 46% | 1019.2 hPa | 0 mm | - | - | - |
| 1777574335 | 17.22° C | 44% | 1019 hPa | 0 mm | - | - | - |
| 1777572535 | 18.33° C | 42% | 1019 hPa | 0 mm | - | - | - |
| 1777571635 | 18.89° C | 41% | 1018.8 hPa | 0 mm | - | - | - |
| 1777570735 | 20° C | 39% | 1018.7 hPa | 0 mm | - | - | - |
| 1777569835 | 20.56° C | 39% | 1018.7 hPa | 0 mm | - | - | - |
| 1777568935 | 21.11° C | 37% | 1018.5 hPa | 0 mm | - | - | - |
| 1777568035 | 21.67° C | 37% | 1018.5 hPa | 0 mm | - | - | - |
| 1777567135 | 21.11° C | 37% | 1018.6 hPa | 0 mm | - | - | - |
| 1777566235 | 21.67° C | 37% | 1018.7 hPa | 0 mm | - | - | - |
| 1777565335 | 21.67° C | 37% | 1018.8 hPa | 0 mm | - | - | - |
| 1777564435 | 22.22° C | 35% | 1018.8 hPa | 0 mm | - | - | - |
| 1777563535 | 22.22° C | 36% | 1018.7 hPa | 0 mm | - | - | - |
| 1777562635 | 22.78° C | 35% | 1018.7 hPa | 0 mm | - | - | - |
| 1777561735 | 22.78° C | 37% | 1018.7 hPa | 0 mm | - | - | - |
| 1777559935 | 22.78° C | 29% | 1018.8 hPa | 0 mm | - | - | - |
| 1777559035 | 22.78° C | 24% | 1018.9 hPa | 0 mm | - | - | - |
| 1777558135 | 23.33° C | 25% | 1019 hPa | 0 mm | - | - | - |
| 1777557235 | 23.33° C | 23% | 1019.2 hPa | 0 mm | - | - | - |
| 1777553635 | 22.22° C | 25% | 1019.6 hPa | 0 mm | - | - | - |
| 1777551835 | 21.67° C | 25% | 1019.9 hPa | 0 mm | - | - | - |
| 1777550035 | 20.56° C | 31% | 1020.1 hPa | 0 mm | - | - | - |
* Rain latest hour (hover to see other rain measurements)
** Current wind speed in m/s (hover to see current wind gust speed)